Bucksport, South Carolina
Current Conditions -  °F | °C
As of 4:15 AM on Sunday 21 Dec 2014 (Local Time) from KHYW Reporting Station
Haze Haze  
Wind Chill: 37°   Ceiling: 5000
Heat Index: 41°   Visibility: 5mi
Dew Point: 41°   Wind: 6mph
Humidity: 100%   Direction: 20°NNE
Pressure: 30.23"   Gusts: NA
Location:  33.736°N, 79.1183°W
Report Text: KHYW 210915Z AUTO 02005KT 5SM BR BKN050 OVC070 05/05 A3023 RMK AO2
Loading
Personal Weather Stations






























Interactive Weather Map New forecast layout! Learn more

10-Day Weather Forecast

Advertisements
Track Severe Weather on mobile